Tomahawk, Wisconsin
Current Conditions -  °F | °C
As of 2:35 PM on Friday 21 Nov 2014 (Local Time) from KTKV Reporting Station
Scattered Clouds Scattered Clouds  
Wind Chill: 15°   Ceiling: Unl
Heat Index: 22°   Visibility: 10mi
Dew Point:   Wind: 6mph
Humidity: 45%   Direction: 180°S
Pressure: 30.1"   Gusts: NA
Location:  45.47°N, 89.73°W
Report Text: KTKV 212035Z AUTO 18005KT 10SM SCT120 M05/M16 A3010 RMK AO2 T10531156
Loading
Personal Weather Stations






























Interactive Weather Map New forecast layout! Learn more

10-Day Weather Forecast

Advertisements
Track Severe Weather on mobile